<?xml version="1.0" encoding="UTF-8" standalone="no" ?>
<gpx xmlns="http://www.topografix.com/GPX/1/1" xmlns:xsi="http://www.w3.org/2001/XMLSchema-instance" xsi:schemaLocation="http://www.topografix.com/GPX/1/1 http://www.topografix.com/GPX/1/1/gpx.xsd" version="1.1" creator="VisuGPX - https://www.visugpx.com">
  <metadata>
    <name>Marche ADEPS Sars La Bruyère  5 Km 01/05/2025</name>
    <desc><![CDATA[Marche ADEPS Sars La Bruyère  5 Km 01/05/2024]]></desc>
  </metadata>
  <trk>
    <name><![CDATA[Marche ADEPS Sars La Bruyère  5 Km 01/05/2024]]></name>
    <trkseg>
      <trkpt lat="50.37156" lon="3.87735">
        <ele>138.91349</ele>
        <time>2024-04-28T15:33:27.904Z</time>
      </trkpt>
      <trkpt lat="50.37168" lon="3.87775">
        <ele>138.91349</ele>
        <time>2024-04-28T15:33:56.656Z</time>
      </trkpt>
      <trkpt lat="50.37179" lon="3.87813">
        <ele>138.91349</ele>
        <time>2024-04-28T15:34:23.715Z</time>
      </trkpt>
      <trkpt lat="50.37186" lon="3.87826">
        <ele>138.91349</ele>
        <time>2024-04-28T15:34:34.911Z</time>
      </trkpt>
      <trkpt lat="50.37189" lon="3.87818">
        <ele>138.91349</ele>
        <time>2024-04-28T15:34:40.815Z</time>
      </trkpt>
      <trkpt lat="50.37238" lon="3.87632">
        <ele>139.374526</ele>
        <time>2024-04-28T15:36:51.634Z</time>
      </trkpt>
      <trkpt lat="50.37246" lon="3.876">
        <ele>139.465951</ele>
        <time>2024-04-28T15:37:13.916Z</time>
      </trkpt>
      <trkpt lat="50.37201" lon="3.87557">
        <ele>139.650082</ele>
        <time>2024-04-28T15:38:06.961Z</time>
      </trkpt>
      <trkpt lat="50.37137" lon="3.87521">
        <ele>139.354949</ele>
        <time>2024-04-28T15:39:15.630Z</time>
      </trkpt>
      <trkpt lat="50.37088" lon="3.87494">
        <ele>139.129341</ele>
        <time>2024-04-28T15:40:08.683Z</time>
      </trkpt>
      <trkpt lat="50.37055" lon="3.87478">
        <ele>138.982827</ele>
        <time>2024-04-28T15:40:43.352Z</time>
      </trkpt>
      <trkpt lat="50.3692" lon="3.87412">
        <ele>137.461013</ele>
        <time>2024-04-28T15:43:07.922Z</time>
      </trkpt>
      <trkpt lat="50.36897" lon="3.87409">
        <ele>137.186401</ele>
        <time>2024-04-28T15:43:31.752Z</time>
      </trkpt>
      <trkpt lat="50.36853" lon="3.8742">
        <ele>136.600367</ele>
        <time>2024-04-28T15:44:17.906Z</time>
      </trkpt>
      <trkpt lat="50.36643" lon="3.87509">
        <ele>133.081696</ele>
        <time>2024-04-28T15:48:03.813Z</time>
      </trkpt>
      <trkpt lat="50.3662" lon="3.87519">
        <ele>132.892876</ele>
        <time>2024-04-28T15:48:27.931Z</time>
      </trkpt>
      <trkpt lat="50.36613" lon="3.87528">
        <ele>132.81906</ele>
        <time>2024-04-28T15:48:37.400Z</time>
      </trkpt>
      <trkpt lat="50.3658" lon="3.87542">
        <ele>132.550597</ele>
        <time>2024-04-28T15:49:11.507Z</time>
      </trkpt>
      <trkpt lat="50.36559" lon="3.87556">
        <ele>132.369535</ele>
        <time>2024-04-28T15:49:34.446Z</time>
      </trkpt>
      <trkpt lat="50.36516" lon="3.87573">
        <ele>132.0172</ele>
        <time>2024-04-28T15:50:19.581Z</time>
      </trkpt>
      <trkpt lat="50.36486" lon="3.87595">
        <ele>132.046994</ele>
        <time>2024-04-28T15:50:52.555Z</time>
      </trkpt>
      <trkpt lat="50.36481" lon="3.87604">
        <ele>132.054286</ele>
        <time>2024-04-28T15:51:00.578Z</time>
      </trkpt>
      <trkpt lat="50.36461" lon="3.87665">
        <ele>132.093684</ele>
        <time>2024-04-28T15:51:44.186Z</time>
      </trkpt>
      <trkpt lat="50.36453" lon="3.87709">
        <ele>132.120444</ele>
        <time>2024-04-28T15:52:13.964Z</time>
      </trkpt>
      <trkpt lat="50.36441" lon="3.87802">
        <ele>132.175362</ele>
        <time>2024-04-28T15:53:14.663Z</time>
      </trkpt>
      <trkpt lat="50.36335" lon="3.87618">
        <ele>132.607018</ele>
        <time>2024-04-28T15:55:53.343Z</time>
      </trkpt>
      <trkpt lat="50.36278" lon="3.87514">
        <ele>133.215653</ele>
        <time>2024-04-28T15:57:23.338Z</time>
      </trkpt>
      <trkpt lat="50.36251" lon="3.87453">
        <ele>133.64262</ele>
        <time>2024-04-28T15:58:12.717Z</time>
      </trkpt>
      <trkpt lat="50.36236" lon="3.87426">
        <ele>133.841446</ele>
        <time>2024-04-28T15:58:35.761Z</time>
      </trkpt>
      <trkpt lat="50.3603" lon="3.87086">
        <ele>136.830026</ele>
        <time>2024-04-28T16:03:46.075Z</time>
      </trkpt>
      <trkpt lat="50.36027" lon="3.87077">
        <ele>136.903728</ele>
        <time>2024-04-28T16:03:52.907Z</time>
      </trkpt>
      <trkpt lat="50.3603" lon="3.87062">
        <ele>137.017586</ele>
        <time>2024-04-28T16:04:03.631Z</time>
      </trkpt>
      <trkpt lat="50.36087" lon="3.86952">
        <ele>138.048779</ele>
        <time>2024-04-28T16:05:38.750Z</time>
      </trkpt>
      <trkpt lat="50.3611" lon="3.86911">
        <ele>138.069357</ele>
        <time>2024-04-28T16:06:14.693Z</time>
      </trkpt>
      <trkpt lat="50.36223" lon="3.86672">
        <ele>138.11676</ele>
        <time>2024-04-28T16:09:27.046Z</time>
      </trkpt>
      <trkpt lat="50.36252" lon="3.86611">
        <ele>138.26181</ele>
        <time>2024-04-28T16:10:15.138Z</time>
      </trkpt>
      <trkpt lat="50.3626" lon="3.86592">
        <ele>138.305571</ele>
        <time>2024-04-28T16:10:29.773Z</time>
      </trkpt>
      <trkpt lat="50.3628" lon="3.86558">
        <ele>138.396651</ele>
        <time>2024-04-28T16:11:00.541Z</time>
      </trkpt>
      <trkpt lat="50.36323" lon="3.8651">
        <ele>138.607977</ele>
        <time>2024-04-28T16:11:55.112Z</time>
      </trkpt>
      <trkpt lat="50.36338" lon="3.86489">
        <ele>138.81913</ele>
        <time>2024-04-28T16:12:16.680Z</time>
      </trkpt>
      <trkpt lat="50.36416" lon="3.86284">
        <ele>140.403239</ele>
        <time>2024-04-28T16:14:55.333Z</time>
      </trkpt>
      <trkpt lat="50.36418" lon="3.86264">
        <ele>140.411506</ele>
        <time>2024-04-28T16:15:08.364Z</time>
      </trkpt>
      <trkpt lat="50.36427" lon="3.86258">
        <ele>140.414183</ele>
        <time>2024-04-28T16:15:18.663Z</time>
      </trkpt>
      <trkpt lat="50.36473" lon="3.86139">
        <ele>140.436999</ele>
        <time>2024-04-28T16:16:47.455Z</time>
      </trkpt>
      <trkpt lat="50.36479" lon="3.86125">
        <ele>140.439964</ele>
        <time>2024-04-28T16:16:58.977Z</time>
      </trkpt>
      <trkpt lat="50.36486" lon="3.86117">
        <ele>140.442018</ele>
        <time>2024-04-28T16:17:06.992Z</time>
      </trkpt>
      <trkpt lat="50.36494" lon="3.86112">
        <ele>140.444279</ele>
        <time>2024-04-28T16:17:15.698Z</time>
      </trkpt>
      <trkpt lat="50.3658" lon="3.86085">
        <ele>140.354867</ele>
        <time>2024-04-28T16:18:43.807Z</time>
      </trkpt>
      <trkpt lat="50.36664" lon="3.86062">
        <ele>140.174724</ele>
        <time>2024-04-28T16:20:09.357Z</time>
      </trkpt>
      <trkpt lat="50.36585" lon="3.85872">
        <ele>139.384045</ele>
        <time>2024-04-28T16:22:36.023Z</time>
      </trkpt>
      <trkpt lat="50.36541" lon="3.85783">
        <ele>138.87742</ele>
        <time>2024-04-28T16:23:49.607Z</time>
      </trkpt>
      <trkpt lat="50.36691" lon="3.85667">
        <ele>139.029972</ele>
        <time>2024-04-28T16:26:37.410Z</time>
      </trkpt>
      <trkpt lat="50.36695" lon="3.85674">
        <ele>139.037959</ele>
        <time>2024-04-28T16:26:43.174Z</time>
      </trkpt>
      <trkpt lat="50.36838" lon="3.86">
        <ele>141.792392</ele>
        <time>2024-04-28T16:31:10.142Z</time>
      </trkpt>
      <trkpt lat="50.36842" lon="3.86017">
        <ele>141.829533</ele>
        <time>2024-04-28T16:31:21.534Z</time>
      </trkpt>
      <trkpt lat="50.36852" lon="3.86096">
        <ele>141.999704</ele>
        <time>2024-04-28T16:32:13.435Z</time>
      </trkpt>
      <trkpt lat="50.36853" lon="3.86155">
        <ele>142.123784</ele>
        <time>2024-04-28T16:32:51.265Z</time>
      </trkpt>
      <trkpt lat="50.36853" lon="3.86169">
        <ele>142.152884</ele>
        <time>2024-04-28T16:33:00.141Z</time>
      </trkpt>
      <trkpt lat="50.36856" lon="3.86232">
        <ele>141.991419</ele>
        <time>2024-04-28T16:33:41.666Z</time>
      </trkpt>
      <trkpt lat="50.36858" lon="3.86258">
        <ele>141.854286</ele>
        <time>2024-04-28T16:33:58.556Z</time>
      </trkpt>
      <trkpt lat="50.36863" lon="3.86313">
        <ele>141.559009</ele>
        <time>2024-04-28T16:34:34.883Z</time>
      </trkpt>
      <trkpt lat="50.36875" lon="3.8644">
        <ele>140.878774</ele>
        <time>2024-04-28T16:35:58.389Z</time>
      </trkpt>
      <trkpt lat="50.36876" lon="3.86444">
        <ele>140.857984</ele>
        <time>2024-04-28T16:36:00.901Z</time>
      </trkpt>
      <trkpt lat="50.36901" lon="3.86603">
        <ele>140.668327</ele>
        <time>2024-04-28T16:37:46.188Z</time>
      </trkpt>
      <trkpt lat="50.36913" lon="3.86697">
        <ele>140.641582</ele>
        <time>2024-04-28T16:38:48.352Z</time>
      </trkpt>
      <trkpt lat="50.36943" lon="3.8694">
        <ele>140.672368</ele>
        <time>2024-04-28T16:41:28.399Z</time>
      </trkpt>
      <trkpt lat="50.36963" lon="3.87092">
        <ele>140.203466</ele>
        <time>2024-04-28T16:43:08.433Z</time>
      </trkpt>
      <trkpt lat="50.3684" lon="3.87189">
        <ele>138.696263</ele>
        <time>2024-04-28T16:45:30.614Z</time>
      </trkpt>
      <trkpt lat="50.36794" lon="3.87217">
        <ele>138.282042</ele>
        <time>2024-04-28T16:46:20.920Z</time>
      </trkpt>
      <trkpt lat="50.36792" lon="3.87218">
        <ele>138.265162</ele>
        <time>2024-04-28T16:46:23.003Z</time>
      </trkpt>
      <trkpt lat="50.36794" lon="3.87226">
        <ele>138.220308</ele>
        <time>2024-04-28T16:46:28.415Z</time>
      </trkpt>
      <trkpt lat="50.36897" lon="3.87409">
        <ele>136.927654</ele>
        <time>2024-04-28T16:49:06.514Z</time>
      </trkpt>
      <trkpt lat="50.36989" lon="3.87563">
        <ele>135.868093</ele>
        <time>2024-04-28T16:51:23.513Z</time>
      </trkpt>
      <trkpt lat="50.37058" lon="3.87707">
        <ele>135.677581</ele>
        <time>2024-04-28T16:53:19.847Z</time>
      </trkpt>
      <trkpt lat="50.37091" lon="3.87774">
        <ele>135.619923</ele>
        <time>2024-04-28T16:54:15.330Z</time>
      </trkpt>
      <trkpt lat="50.3711" lon="3.87807">
        <ele>135.597984</ele>
        <time>2024-04-28T16:54:44.078Z</time>
      </trkpt>
      <trkpt lat="50.37177" lon="3.87852">
        <ele>135.597984</ele>
        <time>2024-04-28T16:55:59.162Z</time>
      </trkpt>
      <trkpt lat="50.37183" lon="3.87836">
        <ele>135.597984</ele>
        <time>2024-04-28T16:56:11.395Z</time>
      </trkpt>
    </trkseg>
  </trk>
</gpx>